Airfield :
LOGIN :

Register | Disclaimer

   EN    FR    IT 

 










Legend :    VFR   Marginal VFR   IFR   Intensive IFR   Very Intensive IFR
Visi :
Ceiling :
>= 8 km
>= 3000ft
5 to 8 km
1000 to 3000 ft
1500m to 5 km
500 to 1000 ft
800 to 1500m
200 to 500 ft
< 800m
< 200 ft
Symbols :   Thunderstorms  Fog  Heavy snow  Heavy precipitations  Wind > 20 kt
SIGMETs :     Misc.  Thunderstorms  Icing  Turbulence  Mountain Waves  Volcanic Ashes






- Airport Elevation : 659 ft
- IATA code : LGG


EBLG - Liège

CURRENT METAR :
  • 222150Z 18007KT 130V220 CAVOK 02/M00 Q0997 NOSIG

EXPIRED METARs :
  • 222120Z 17007KT CAVOK 02/M00 Q0997 NOSIG
  • 222050Z 20007KT CAVOK 02/M00 Q0997 NOSIG
  • 222020Z 20007KT CAVOK 03/00 Q0997 NOSIG
  • 221950Z 21006KT CAVOK 03/M00 Q0997 NOSIG
  • 221920Z 22005KT CAVOK 02/M00 Q0997 NOSIG

TAF TAF EBLG
Valid from the 22 at 18:00 until the 24 at 00:00 UTC


221720Z 2218/2324 20004KT CAVOK
TEMPO 2302/2309 3500 RA SHRA BKN012
TEMPO 2320/2324 3500 -RASN SCT005 BKN010
PROB30
TEMPO 2322/2324 1500 SNRA BKN005



MET'MAP, your aeronautical weather chart ! - Copyright ORBIFLY December 2007 - Disclaimer

ORBIFLY MET'MAP TEAM :

Programming & Development : Alexandra Zaïnal
Concept & original design : Baudouin d'Aumeries
Assistance for programming : Marc-Olivier Méhu
Technical & hardware support : Manuel Goepfert

Contact : metmap@orbifly.com




SOURCES & CREDITS :

   NOAA